createdAt,value
2022-12-08T00:01:33.813Z,3.13
2022-12-08T00:04:02.136Z,2.53
2022-12-08T00:06:48.236Z,2.72
2022-12-08T00:09:23.144Z,2.08
2022-12-08T00:11:53.509Z,2.00
2022-12-08T00:14:21.256Z,2.08
2022-12-08T00:16:48.657Z,1.85
2022-12-08T00:19:16.141Z,1.77
2022-12-08T00:21:43.403Z,1.52
2022-12-08T00:24:10.854Z,1.92
2022-12-08T00:26:38.421Z,1.92
2022-12-08T00:29:06.005Z,2.00
2022-12-08T00:31:33.666Z,2.00
2022-12-08T00:34:01.095Z,1.55
2022-12-08T00:36:28.465Z,1.52
2022-12-08T00:38:58.335Z,1.52
2022-12-08T00:41:45.185Z,1.60
2022-12-08T00:44:13.791Z,1.42
2022-12-08T00:46:41.586Z,1.77
2022-12-08T00:49:08.941Z,1.85
2022-12-08T00:51:36.333Z,2.13
2022-12-08T00:54:04.056Z,1.83
2022-12-08T00:56:31.927Z,2.10
2022-12-08T00:58:59.283Z,1.73
2022-12-08T01:01:28.605Z,2.05
2022-12-08T01:03:56.048Z,1.65
2022-12-08T01:06:23.854Z,1.92
2022-12-08T01:08:51.212Z,2.33
2022-12-08T01:11:19.443Z,2.30
2022-12-08T01:13:47.222Z,2.55
2022-12-08T01:16:25.734Z,2.42
2022-12-08T01:18:55.917Z,2.20
2022-12-08T01:21:23.294Z,2.33
2022-12-08T01:23:50.902Z,2.45
2022-12-08T01:26:19.744Z,2.85
2022-12-08T01:28:51.361Z,2.58
2022-12-08T01:31:19.946Z,2.67
2022-12-08T01:33:48.266Z,2.38
2022-12-08T01:36:20.236Z,2.25
2022-12-08T01:38:47.697Z,2.25
2022-12-08T01:41:16.142Z,2.30
2022-12-08T01:43:52.420Z,1.90
2022-12-08T01:46:20.949Z,1.95
2022-12-08T01:48:48.481Z,1.83
2022-12-08T01:51:19.017Z,2.30
2022-12-08T01:53:46.893Z,2.25
2022-12-08T01:56:17.589Z,2.13
2022-12-08T01:58:48.746Z,1.98
2022-12-08T02:01:18.292Z,2.70
2022-12-08T02:03:52.945Z,2.63
2022-12-08T02:06:21.083Z,2.08
2022-12-08T02:08:48.905Z,2.72
2022-12-08T02:11:16.525Z,2.08
2022-12-08T02:13:45.579Z,2.55
2022-12-08T02:16:28.414Z,2.85
2022-12-08T02:19:31.411Z,2.33
2022-12-08T02:22:08.351Z,2.15
2022-12-08T02:24:40.837Z,2.60
2022-12-08T02:27:37.798Z,2.25
2022-12-08T02:30:11.034Z,2.65
2022-12-08T02:32:58.602Z,2.28
2022-12-08T02:35:35.169Z,2.08
2022-12-08T02:38:08.542Z,2.65
2022-12-08T02:40:54.634Z,2.15
2022-12-08T02:43:52.401Z,2.38
2022-12-08T02:46:28.491Z,2.33
2022-12-08T02:48:56.697Z,2.65
2022-12-08T02:51:24.216Z,1.92
2022-12-08T02:53:51.680Z,2.22
2022-12-08T02:56:39.943Z,2.08
2022-12-08T02:59:11.584Z,1.90
2022-12-08T03:01:54.932Z,1.98
2022-12-08T03:04:41.307Z,1.42
2022-12-08T03:07:08.806Z,1.92
2022-12-08T03:09:51.353Z,2.25
2022-12-08T03:12:20.320Z,1.85
2022-12-08T03:14:49.469Z,1.70
2022-12-08T03:17:17.982Z,1.50
2022-12-08T03:19:46.935Z,1.95
2022-12-08T03:22:16.650Z,2.03
2022-12-08T03:24:44.913Z,1.80
2022-12-08T03:27:14.941Z,1.55
2022-12-08T03:29:42.428Z,2.22
2022-12-08T03:32:24.507Z,1.98
2022-12-08T03:34:52.672Z,1.50
2022-12-08T03:37:21.248Z,1.52
2022-12-08T03:39:48.928Z,1.67
2022-12-08T03:42:16.290Z,1.50
2022-12-08T03:44:43.582Z,1.88
2022-12-08T03:47:12.220Z,1.85
2022-12-08T03:49:39.905Z,1.48
2022-12-08T03:52:07.250Z,1.73
2022-12-08T03:54:34.686Z,2.08
2022-12-08T03:57:02.078Z,2.15
2022-12-08T03:59:29.412Z,1.70
2022-12-08T04:01:56.926Z,1.25
2022-12-08T04:04:24.269Z,1.10
2022-12-08T04:06:51.842Z,1.10
2022-12-08T04:09:19.250Z,1.70
2022-12-08T04:11:46.692Z,1.42
2022-12-08T04:14:14.109Z,1.15
2022-12-08T04:16:41.508Z,1.00
2022-12-08T04:19:08.937Z,0.93
2022-12-08T04:21:36.306Z,1.20
2022-12-08T04:24:04.014Z,1.17
2022-12-08T04:26:31.383Z,0.98
2022-12-08T04:28:58.744Z,1.13
2022-12-08T04:31:26.190Z,0.95
2022-12-08T04:33:53.697Z,0.88
2022-12-08T04:36:21.280Z,1.17
2022-12-08T04:38:48.609Z,0.90
2022-12-08T04:41:16.012Z,0.80
2022-12-08T04:43:44.445Z,1.30
2022-12-08T04:46:12.249Z,0.85
2022-12-08T04:48:40.128Z,0.82
2022-12-08T04:51:08.043Z,1.02
2022-12-08T04:53:36.217Z,0.73
2022-12-08T04:56:03.602Z,0.88
2022-12-08T04:58:31.025Z,0.80
2022-12-08T05:00:58.376Z,0.80
2022-12-08T05:03:28.695Z,1.00
2022-12-08T05:05:56.927Z,0.32
2022-12-08T05:08:24.540Z,0.75
2022-12-08T05:10:57.642Z,0.63
2022-12-08T05:13:25.089Z,0.95
2022-12-08T05:15:52.392Z,1.00
2022-12-08T05:18:20.006Z,0.60
2022-12-08T05:20:47.382Z,0.90
2022-12-08T05:23:14.779Z,0.80
2022-12-08T05:25:42.086Z,1.52
2022-12-08T05:28:39.694Z,0.82
2022-12-08T05:30:56.876Z,1.30
2022-12-08T05:33:24.317Z,0.70
2022-12-08T05:35:51.768Z,0.80
2022-12-08T05:38:21.632Z,0.73
2022-12-08T05:40:49.451Z,0.80
2022-12-08T05:43:16.953Z,0.70
2022-12-08T05:45:44.476Z,1.00
2022-12-08T05:48:11.961Z,0.57
2022-12-08T05:50:39.441Z,1.30
2022-12-08T05:53:06.906Z,0.90
2022-12-08T05:55:34.319Z,1.05
2022-12-08T05:58:07.470Z,1.13
2022-12-08T06:00:35.669Z,1.42
2022-12-08T06:03:05.773Z,1.25
2022-12-08T06:05:39.630Z,2.00
2022-12-08T06:08:11.347Z,2.17
2022-12-08T06:10:39.338Z,2.70
2022-12-08T06:13:09.350Z,2.42
2022-12-08T06:15:37.332Z,2.63
2022-12-08T06:18:07.747Z,2.63
2022-12-08T06:20:38.084Z,2.70
2022-12-08T06:23:05.677Z,3.40
2022-12-08T06:25:33.080Z,3.80
2022-12-08T06:28:05.790Z,2.92
2022-12-08T06:30:58.720Z,3.22
2022-12-08T06:33:29.314Z,2.70
2022-12-08T06:36:21.901Z,3.08
2022-12-08T06:41:59.641Z,2.78
2022-12-08T06:44:43.220Z,2.50
2022-12-08T06:47:10.537Z,2.70
2022-12-08T06:49:38.974Z,2.33
2022-12-08T06:52:10.996Z,2.53
2022-12-08T06:54:43.165Z,2.97
2022-12-08T06:57:12.120Z,2.08
2022-12-08T07:00:00.365Z,2.10
2022-12-08T07:02:33.971Z,1.70
2022-12-08T07:05:04.468Z,2.00
2022-12-08T07:10:18.367Z,2.50
2022-12-08T07:12:51.945Z,1.95
2022-12-08T07:15:19.718Z,2.28
2022-12-08T07:17:53.598Z,1.92
2022-12-08T07:20:27.449Z,2.03
2022-12-08T07:23:13.185Z,2.00
2022-12-08T07:25:45.251Z,1.10
2022-12-08T07:28:12.706Z,1.60
2022-12-08T07:30:40.611Z,1.17
2022-12-08T07:33:16.791Z,1.35
2022-12-08T07:35:55.596Z,2.03
2022-12-08T07:38:23.647Z,1.33
2022-12-08T07:41:03.349Z,1.13
2022-12-08T07:46:31.758Z,1.23
2022-12-08T07:49:05.604Z,1.40
2022-12-08T07:51:33.588Z,1.40
2022-12-08T07:54:06.329Z,2.08
2022-12-08T07:56:39.788Z,1.45
2022-12-08T07:59:15.176Z,1.45
2022-12-08T08:02:23.496Z,1.42
2022-12-08T08:07:37.256Z,1.30
2022-12-08T08:10:05.412Z,1.42
2022-12-08T08:15:14.976Z,1.30
2022-12-08T08:17:42.329Z,1.00
2022-12-08T08:20:10.035Z,0.93
2022-12-08T08:22:37.546Z,0.70
2022-12-08T08:25:05.808Z,0.90
2022-12-08T08:27:33.114Z,0.93
2022-12-08T08:30:00.521Z,0.70
2022-12-08T08:32:27.859Z,1.10
2022-12-08T08:34:55.169Z,2.10
2022-12-08T08:37:22.508Z,1.02
2022-12-08T08:39:49.794Z,1.20
2022-12-08T08:42:17.298Z,0.70
2022-12-08T08:44:44.589Z,0.80
2022-12-08T08:47:12.052Z,0.63
2022-12-08T08:49:39.410Z,0.75
2022-12-08T08:52:07.071Z,1.40
2022-12-08T08:54:35.631Z,1.60
2022-12-08T08:57:25.331Z,1.60
2022-12-08T08:59:54.052Z,0.65
2022-12-08T09:02:22.854Z,1.30
2022-12-08T09:04:50.333Z,1.20
2022-12-08T09:07:17.926Z,0.85
2022-12-08T09:09:45.181Z,0.90
2022-12-08T09:12:13.322Z,0.82
2022-12-08T09:14:40.708Z,0.95
2022-12-08T09:17:08.596Z,0.90
2022-12-08T09:19:35.967Z,0.70
2022-12-08T09:22:04.399Z,0.90
2022-12-08T09:24:31.808Z,1.33
2022-12-08T09:26:59.160Z,0.73
2022-12-08T09:29:31.084Z,0.70
2022-12-08T09:32:01.506Z,0.90
2022-12-08T09:34:28.845Z,1.23
2022-12-08T09:36:56.345Z,0.77
2022-12-08T09:39:25.129Z,1.20
2022-12-08T09:42:18.718Z,1.15
2022-12-08T09:45:04.872Z,1.27
2022-12-08T09:47:40.557Z,0.65
2022-12-08T09:50:19.296Z,1.00
2022-12-08T09:52:56.052Z,1.35
2022-12-08T09:55:40.694Z,1.30
2022-12-08T09:58:15.624Z,0.90
2022-12-08T10:00:43.303Z,0.77
2022-12-08T10:03:16.994Z,0.95
2022-12-08T10:06:00.317Z,0.95
2022-12-08T10:08:32.324Z,0.82
2022-12-08T10:11:12.338Z,1.00
2022-12-08T10:13:45.841Z,0.85
2022-12-08T10:16:29.323Z,1.02
2022-12-08T10:19:02.006Z,0.95
2022-12-08T10:21:31.680Z,1.30
2022-12-08T10:24:02.681Z,0.93
2022-12-08T10:26:32.931Z,1.10
2022-12-08T10:29:03.149Z,1.23
2022-12-08T10:31:31.618Z,1.40
2022-12-08T10:34:00.716Z,1.20
2022-12-08T10:36:50.138Z,1.10
2022-12-08T10:39:31.368Z,1.23
2022-12-08T10:42:18.060Z,0.93
2022-12-08T10:44:51.454Z,0.75
2022-12-08T10:47:27.651Z,0.55
2022-12-08T10:50:20.277Z,0.77
2022-12-08T10:52:55.167Z,1.08
2022-12-08T10:55:22.926Z,0.82
2022-12-08T10:57:50.458Z,1.95
2022-12-08T11:00:19.854Z,1.70
2022-12-08T11:02:58.642Z,1.40
2022-12-08T11:05:28.204Z,1.98
2022-12-08T11:07:56.867Z,1.80
2022-12-08T11:10:35.526Z,1.35
2022-12-08T11:13:07.104Z,1.38
2022-12-08T11:15:36.675Z,1.55
2022-12-08T11:18:22.343Z,1.60
2022-12-08T11:20:56.867Z,1.17
2022-12-08T11:23:25.765Z,1.27
2022-12-08T11:25:54.168Z,1.75
2022-12-08T11:28:23.619Z,1.42
2022-12-08T11:31:00.230Z,1.02
2022-12-08T11:33:28.680Z,1.40
2022-12-08T11:36:02.094Z,1.10
2022-12-08T11:38:29.871Z,1.80
2022-12-08T11:41:00.148Z,1.35
2022-12-08T12:02:30.480Z,36.58
2022-12-08T12:05:04.261Z,28.80
2022-12-08T12:07:37.959Z,36.97
2022-12-08T12:10:14.502Z,17.15
2022-12-08T12:13:01.604Z,18.08
2022-12-08T12:15:31.664Z,13.07
2022-12-08T12:17:58.982Z,11.88
2022-12-08T12:20:32.824Z,13.73
2022-12-08T12:23:15.411Z,14.98
2022-12-08T12:26:16.531Z,12.60
2022-12-08T12:28:52.666Z,16.25
2022-12-08T12:31:22.687Z,10.00
2022-12-08T12:33:51.310Z,8.85
2022-12-08T12:36:18.762Z,8.40
2022-12-08T12:39:08.611Z,9.57
2022-12-08T12:41:50.897Z,6.72
2022-12-08T12:44:18.154Z,7.68
2022-12-08T12:46:48.790Z,7.63
2022-12-08T12:49:34.946Z,5.50
2022-12-08T12:52:02.311Z,5.20
2022-12-08T12:54:30.002Z,5.28
2022-12-08T12:57:17.515Z,5.53
2022-12-08T12:59:51.634Z,4.70
2022-12-08T13:02:25.208Z,8.00
2022-12-08T13:04:58.089Z,7.53
2022-12-08T13:07:27.549Z,6.28
2022-12-08T13:09:59.931Z,5.40
2022-12-08T14:17:16.125Z,6.32
2022-12-08T14:20:13.536Z,7.90
2022-12-08T14:22:51.018Z,7.55
2022-12-08T14:25:25.949Z,5.72
2022-12-08T14:28:10.010Z,6.22
2022-12-08T14:30:40.013Z,6.88
2022-12-08T14:33:13.629Z,4.40
2022-12-08T14:35:53.366Z,4.93
2022-12-08T14:38:24.490Z,4.85
2022-12-08T14:41:04.933Z,6.15
2022-12-08T14:43:33.618Z,6.38
2022-12-08T14:46:02.399Z,6.95
2022-12-08T14:48:38.857Z,4.07
2022-12-08T14:51:12.316Z,4.28
2022-12-08T14:53:44.210Z,4.78
2022-12-08T14:56:20.661Z,4.10
2022-12-08T14:58:49.849Z,4.68
2022-12-08T15:01:22.435Z,4.60
2022-12-08T15:03:51.468Z,4.97
2022-12-08T15:06:21.810Z,3.97
2022-12-08T15:08:58.744Z,4.05
2022-12-08T15:11:33.760Z,5.50
2022-12-08T15:14:01.272Z,5.07
2022-12-08T15:16:28.682Z,5.75
2022-12-08T15:19:24.410Z,5.55
2022-12-08T15:21:51.801Z,4.72
2022-12-08T15:24:21.684Z,5.82
2022-12-08T15:26:49.934Z,5.63
2022-12-08T15:29:27.449Z,4.72
2022-12-08T15:31:57.292Z,5.13
2022-12-08T15:34:24.626Z,5.07
2022-12-08T15:36:52.773Z,5.30
2022-12-08T15:39:22.402Z,5.07
2022-12-08T15:41:49.787Z,4.20
2022-12-08T15:44:20.189Z,4.82
2022-12-08T15:46:47.571Z,4.53
2022-12-08T15:49:21.109Z,8.18
2022-12-08T15:52:01.996Z,5.82
2022-12-08T15:54:37.977Z,3.58
2022-12-08T15:57:35.972Z,4.45
2022-12-08T15:59:53.445Z,7.20
2022-12-08T16:02:25.268Z,5.50
2022-12-08T16:07:40.975Z,4.68
2022-12-08T16:10:09.239Z,3.40
2022-12-08T16:16:01.158Z,6.07
2022-12-08T16:18:30.209Z,4.68
2022-12-08T16:23:47.225Z,4.05
2022-12-08T16:26:44.014Z,3.97
2022-12-08T16:29:05.995Z,4.20
2022-12-08T16:31:33.732Z,3.80
2022-12-08T16:34:01.264Z,5.43
2022-12-08T16:36:28.605Z,5.00
2022-12-08T16:38:55.964Z,5.70
2022-12-08T16:41:41.824Z,4.63
2022-12-08T16:44:09.141Z,6.05
2022-12-08T16:46:37.099Z,5.53
2022-12-08T16:49:05.225Z,5.50
2022-12-08T16:51:32.520Z,5.07
2022-12-08T16:53:59.798Z,6.97
2022-12-08T16:56:32.791Z,5.95
2022-12-08T16:59:01.318Z,7.60
2022-12-08T17:01:31.611Z,7.68
2022-12-08T17:06:46.699Z,6.57
2022-12-08T17:09:14.366Z,6.70
2022-12-08T17:11:44.371Z,7.78
2022-12-08T17:14:12.880Z,7.82
2022-12-08T17:16:42.475Z,6.28
2022-12-08T17:19:10.124Z,7.53
2022-12-08T17:21:40.053Z,7.22
2022-12-08T17:24:07.375Z,7.22
2022-12-08T17:26:35.453Z,7.00
2022-12-08T17:29:03.559Z,6.25
2022-12-08T17:31:32.243Z,5.78
2022-12-08T17:34:01.088Z,6.45
2022-12-08T17:36:28.397Z,7.93
2022-12-08T17:38:58.172Z,6.20
2022-12-08T17:41:25.439Z,6.78
2022-12-08T17:43:52.864Z,5.88
2022-12-08T17:46:20.786Z,7.07
2022-12-08T17:48:48.424Z,8.43
2022-12-08T17:51:15.938Z,6.60
2022-12-08T17:53:43.538Z,7.68
2022-12-08T17:56:21.659Z,6.82
2022-12-08T17:58:54.337Z,6.25
2022-12-08T18:01:23.160Z,6.95
2022-12-08T18:03:50.771Z,5.50
2022-12-08T18:06:18.022Z,5.53
2022-12-08T18:08:45.785Z,6.13
2022-12-08T18:11:16.006Z,5.60
2022-12-08T18:13:43.581Z,5.63
2022-12-08T18:16:11.133Z,5.68
2022-12-08T18:18:38.474Z,14.90
2022-12-08T18:21:05.818Z,9.40
2022-12-08T18:23:33.095Z,6.75
2022-12-08T18:26:00.415Z,4.82
2022-12-08T18:28:27.732Z,4.43
2022-12-08T18:30:55.107Z,5.32
2022-12-08T18:33:22.611Z,8.23
2022-12-08T18:35:49.936Z,6.45
2022-12-08T18:38:17.204Z,4.28
2022-12-08T18:40:44.499Z,5.55
2022-12-08T18:43:11.777Z,4.28
2022-12-08T18:45:39.819Z,3.40
2022-12-08T18:48:07.289Z,3.30
2022-12-08T18:50:34.559Z,4.00
2022-12-08T18:53:01.906Z,5.57
2022-12-08T18:55:29.205Z,4.38
2022-12-08T18:57:56.559Z,4.13
2022-12-08T19:00:24.959Z,3.88
2022-12-08T19:02:52.271Z,3.40
2022-12-08T19:05:19.698Z,4.20
2022-12-08T19:07:47.122Z,4.30
2022-12-08T19:10:14.628Z,3.67
2022-12-08T19:12:42.061Z,4.07
2022-12-08T19:15:09.837Z,3.33
2022-12-08T19:17:37.757Z,3.33
2022-12-08T19:20:07.069Z,4.20
2022-12-08T19:22:34.518Z,4.78
2022-12-08T19:25:01.799Z,4.38
2022-12-08T19:27:29.340Z,4.07
2022-12-08T19:29:57.336Z,3.35
2022-12-08T19:32:24.759Z,4.18
2022-12-08T19:34:52.275Z,2.95
2022-12-08T19:37:19.648Z,4.07
2022-12-08T19:40:05.891Z,3.80
2022-12-08T19:42:51.996Z,4.22
2022-12-08T19:45:21.933Z,3.47
2022-12-08T19:47:49.740Z,3.30
2022-12-08T19:50:36.319Z,4.43
2022-12-08T19:53:14.500Z,3.05
2022-12-08T19:55:42.647Z,3.92
2022-12-08T19:58:10.107Z,3.40
2022-12-08T20:00:38.498Z,3.50
2022-12-08T20:03:06.374Z,3.40
2022-12-08T20:05:35.238Z,3.10
2022-12-08T20:08:02.702Z,3.65
2022-12-08T20:10:34.192Z,3.70
2022-12-08T20:13:20.648Z,3.20
2022-12-08T20:15:48.082Z,3.38
2022-12-08T20:18:15.816Z,3.13
2022-12-08T20:20:43.963Z,3.58
2022-12-08T20:23:11.440Z,3.58
2022-12-08T20:25:39.951Z,3.25
2022-12-08T20:28:07.559Z,3.22
2022-12-08T20:30:35.198Z,4.43
2022-12-08T20:33:02.454Z,3.10
2022-12-08T20:35:29.713Z,4.57
2022-12-08T20:37:57.113Z,4.47
2022-12-08T20:40:25.025Z,4.53
2022-12-08T20:42:55.166Z,5.00
2022-12-08T20:45:22.644Z,3.60
2022-12-08T20:47:50.234Z,3.83
2022-12-08T20:50:17.538Z,4.10
2022-12-08T20:52:44.836Z,3.28
2022-12-08T20:55:12.286Z,3.47
2022-12-08T20:57:39.603Z,4.50
2022-12-08T21:00:07.626Z,4.15
2022-12-08T21:02:35.430Z,3.05
2022-12-08T21:05:04.099Z,4.10
2022-12-08T21:07:32.544Z,3.42
2022-12-08T21:10:03.817Z,3.17
2022-12-08T21:12:32.363Z,5.43
2022-12-08T21:14:59.940Z,3.25
2022-12-08T21:17:27.483Z,4.03
2022-12-08T21:19:54.953Z,3.90
2022-12-08T21:22:22.666Z,4.18
2022-12-08T21:24:50.425Z,4.22
2022-12-08T21:27:17.930Z,4.07
2022-12-08T21:29:45.579Z,4.53
2022-12-08T21:32:13.107Z,3.72
2022-12-08T21:34:40.682Z,4.15
2022-12-08T21:37:08.082Z,4.05
2022-12-08T21:39:38.035Z,4.22
2022-12-08T21:42:27.835Z,3.55
2022-12-08T21:44:58.206Z,2.63
2022-12-08T21:47:25.668Z,3.95
2022-12-08T21:49:53.010Z,4.03
2022-12-08T21:52:20.299Z,3.30
2022-12-08T21:54:50.635Z,5.20
2022-12-08T21:57:18.366Z,2.83
2022-12-08T21:59:45.937Z,3.42
2022-12-08T22:02:22.193Z,3.35
2022-12-08T22:04:50.394Z,3.88
2022-12-08T22:07:18.095Z,3.67
2022-12-08T22:09:45.427Z,4.47
2022-12-08T22:12:12.885Z,3.63
2022-12-08T22:14:40.401Z,5.20
2022-12-08T22:17:08.001Z,2.55
2022-12-08T22:19:35.600Z,4.40
2022-12-08T22:22:03.465Z,3.30
2022-12-08T22:24:31.489Z,4.80
2022-12-08T22:26:58.836Z,4.35
2022-12-08T22:29:26.253Z,5.20
2022-12-08T22:31:53.596Z,3.72
2022-12-08T22:34:21.138Z,4.35
2022-12-08T22:36:49.215Z,4.70
2022-12-08T22:39:16.598Z,4.93
2022-12-08T22:41:44.131Z,5.07
2022-12-08T22:44:12.328Z,5.10
2022-12-08T22:46:39.957Z,5.20
2022-12-08T22:49:07.751Z,5.03
2022-12-08T22:51:38.745Z,5.68
2022-12-08T22:54:06.096Z,5.70
2022-12-08T22:56:33.550Z,3.38
2022-12-08T22:59:01.000Z,5.53
2022-12-08T23:01:30.766Z,5.43
2022-12-08T23:03:58.537Z,4.63
2022-12-08T23:06:26.585Z,4.53
2022-12-08T23:08:54.875Z,5.07
2022-12-08T23:11:22.982Z,3.85
2022-12-08T23:13:50.346Z,4.47
2022-12-08T23:16:17.684Z,4.53
2022-12-08T23:18:46.370Z,5.18
2022-12-08T23:21:15.584Z,4.43
2022-12-08T23:23:43.132Z,4.22
2022-12-08T23:26:18.062Z,4.57
2022-12-08T23:28:45.327Z,4.22
2022-12-08T23:31:12.648Z,5.30
2022-12-08T23:33:40.087Z,5.40
2022-12-08T23:36:07.801Z,4.18
2022-12-08T23:38:35.338Z,5.25
2022-12-08T23:41:03.454Z,4.40
2022-12-08T23:43:30.776Z,5.68
2022-12-08T23:45:58.323Z,5.07
2022-12-08T23:48:26.764Z,4.50
2022-12-08T23:50:54.258Z,5.80
2022-12-08T23:53:21.657Z,5.93
2022-12-08T23:55:48.882Z,5.35
2022-12-08T23:58:16.213Z,6.30
